Airfield :
LOGIN :

Register | Disclaimer

   EN    FR    IT 

 










Legend :    VFR   Marginal VFR   IFR   Intensive IFR   Very Intensive IFR
Visi :
Ceiling :
>= 8 km
>= 3000ft
5 to 8 km
1000 to 3000 ft
1500m to 5 km
500 to 1000 ft
800 to 1500m
200 to 500 ft
< 800m
< 200 ft
Symbols :   Thunderstorms  Fog  Heavy snow  Heavy precipitations  Wind > 20 kt
SIGMETs :     Misc.  Thunderstorms  Icing  Turbulence  Mountain Waves  Volcanic Ashes







- Airport Elevation : 42 ft
- IATA code : KGD


UMKK - Khrabrava - Kaliningrad

CURRENT METAR :
  • 210230Z 19004MPS CAVOK 17/12 Q1012 R06/CLRD60 NOSIG RMK QFE758/1010

EXPIRED METARs :
  • 210200Z 19004MPS CAVOK 17/12 Q1012 R06/CLRD60 NOSIG RMK QFE758/1011
  • 210130Z 20004MPS CAVOK 15/12 Q1013 R06/CLRD60 NOSIG RMK QFE758/1011
  • 210100Z 20004MPS CAVOK 15/11 Q1013 R06/CLRD60 NOSIG RMK QFE758/1011
  • 210030Z 21002MPS CAVOK 16/12 Q1013 R24/CLRD60 NOSIG RMK QFE759/1012
  • 210000Z 19001MPS CAVOK 15/12 Q1013 R24/CLRD60 NOSIG RMK QFE759/1012

TAF TAF UMKK
Valid from the 21 at 03:00 until the 22 at 03:00 UTC


210154Z 2103/2203 20005MPS 9999 SCT020
BECMG 2109/2111 23007G12MPS
TEMPO 2112/2121 30010G15MPS 3100 -TSRA BKN011 BKN020CB
BECMG 2121/2123 25005G10MPS



MET'MAP, your aeronautical weather chart ! - Copyright ORBIFLY December 2007 - Disclaimer

ORBIFLY MET'MAP TEAM :

Programming & Development : Alexandra Zaïnal
Concept & Development : Baudouin d'Aumeries
Co-Development & Prog : Marc-Olivier Méhu
Technical & hardware support : Manuel Goepfert

Contact : metmap@orbifly.com




SOURCES & CREDITS :

   NOAA